createdAt,value
2022-09-15T00:02:16.668Z,14.10258
2022-09-15T00:07:17.813Z,14.35747
2022-09-15T00:12:18.799Z,14.31418
2022-09-15T00:17:19.724Z,14.29738
2022-09-15T00:22:20.664Z,14.04152
2022-09-15T00:27:21.653Z,13.88936
2022-09-15T00:32:22.846Z,13.78146
2022-09-15T00:37:23.765Z,13.71782
2022-09-15T00:42:24.843Z,13.60605
2022-09-15T00:47:25.988Z,13.53885
2022-09-15T00:52:27.078Z,13.41803
2022-09-15T00:57:28.135Z,13.40511
2022-09-15T01:02:29.209Z,13.39736
2022-09-15T01:07:30.151Z,13.39994
2022-09-15T01:12:31.277Z,13.27524
2022-09-15T01:17:32.205Z,13.18899
2022-09-15T01:22:33.193Z,13.17413
2022-09-15T01:27:41.602Z,13.0995
2022-09-15T01:32:43.085Z,13.0756
2022-09-15T01:37:44.153Z,13.01066
2022-09-15T01:42:45.158Z,12.95413
2022-09-15T01:47:46.172Z,12.9509
2022-09-15T01:52:47.242Z,12.90438
2022-09-15T01:57:48.153Z,12.91278
2022-09-15T02:02:49.292Z,12.8556
2022-09-15T02:07:50.212Z,12.79357
2022-09-15T02:12:51.284Z,12.72961
2022-09-15T02:17:52.233Z,12.67792
2022-09-15T02:22:53.158Z,12.7238
2022-09-15T02:27:54.208Z,12.82879
2022-09-15T02:32:55.144Z,12.83073
2022-09-15T02:37:56.064Z,12.89953
2022-09-15T02:42:57.071Z,12.92538
2022-09-15T02:47:58.049Z,12.85592
2022-09-15T02:52:58.997Z,12.78388
2022-09-15T02:58:00.034Z,12.7351
2022-09-15T03:03:00.990Z,12.66759
2022-09-15T03:08:01.949Z,12.63496
2022-09-15T03:13:03.100Z,12.58747
2022-09-15T03:18:04.084Z,12.53998
2022-09-15T03:23:05.149Z,12.52674
2022-09-15T03:28:06.118Z,12.46342
2022-09-15T03:33:07.262Z,12.48603
2022-09-15T03:38:08.212Z,12.50509
2022-09-15T03:43:09.204Z,12.46245
2022-09-15T03:48:10.185Z,12.50057
2022-09-15T03:53:11.128Z,12.43305
2022-09-15T03:58:12.032Z,12.39558
2022-09-15T04:03:12.968Z,12.34744
2022-09-15T04:08:13.884Z,12.2683
2022-09-15T04:13:14.898Z,12.15168
2022-09-15T04:18:15.923Z,12.07899
2022-09-15T04:23:16.806Z,12.08772
2022-09-15T04:28:17.810Z,12.0945
2022-09-15T04:33:18.934Z,12.0357
2022-09-15T04:38:19.873Z,12.01083
2022-09-15T04:43:20.897Z,11.94138
2022-09-15T04:48:21.861Z,11.87967
2022-09-15T04:53:23.073Z,11.89163
2022-09-15T04:58:24.000Z,11.91262
2022-09-15T05:03:25.025Z,11.74981
2022-09-15T05:08:25.936Z,11.73204
2022-09-15T05:13:26.965Z,11.66872
2022-09-15T05:18:27.902Z,11.57698
2022-09-15T05:23:29.022Z,11.54855
2022-09-15T05:28:30.168Z,11.54758
2022-09-15T05:33:31.258Z,11.59539
2022-09-15T05:38:32.312Z,11.61478
2022-09-15T05:43:33.416Z,11.64902
2022-09-15T05:48:34.442Z,11.68972
2022-09-15T05:53:35.447Z,11.75142
2022-09-15T05:58:36.365Z,11.81797
2022-09-15T06:03:37.390Z,12.02989
2022-09-15T06:08:40.531Z,12.2095
2022-09-15T06:13:44.708Z,12.45663
2022-09-15T06:18:45.983Z,12.51252
2022-09-15T06:23:50.712Z,12.61525
2022-09-15T06:28:51.988Z,12.9089
2022-09-15T06:33:53.267Z,13.12664
2022-09-15T06:38:54.457Z,13.22872
2022-09-15T06:43:55.447Z,13.44775
2022-09-15T06:48:56.462Z,13.71427
2022-09-15T06:53:57.535Z,13.90035
2022-09-15T06:58:58.555Z,14.00502
2022-09-15T07:03:59.550Z,14.1281
2022-09-15T07:09:00.503Z,14.26507
2022-09-15T07:14:01.675Z,14.37556
2022-09-15T07:19:02.614Z,14.43791
2022-09-15T07:24:07.030Z,14.65888
2022-09-15T07:29:08.640Z,14.70023
2022-09-15T07:34:09.579Z,14.81556
2022-09-15T07:39:10.580Z,15.20549
2022-09-15T07:44:11.516Z,15.64937
2022-09-15T07:49:12.665Z,15.98729
2022-09-15T07:54:16.265Z,15.91234
2022-09-15T07:59:19.646Z,15.79863
2022-09-15T08:04:20.675Z,15.78409
2022-09-15T08:09:21.618Z,15.94594
2022-09-15T08:14:22.740Z,16.19922
2022-09-15T08:19:23.821Z,16.26448
2022-09-15T08:29:25.287Z,16.76975
2022-09-15T08:34:26.324Z,16.7158
2022-09-15T08:39:27.330Z,16.83307
2022-09-15T08:44:28.647Z,16.66217
2022-09-15T08:49:47.832Z,16.69124
2022-09-15T08:54:52.374Z,16.89897
2022-09-15T08:59:53.389Z,16.66314
2022-09-15T09:04:54.430Z,16.49256
2022-09-15T09:09:55.368Z,16.66831
2022-09-15T09:14:56.302Z,16.70029
2022-09-15T09:19:57.232Z,16.7355
2022-09-15T09:24:58.234Z,16.62308
2022-09-15T09:29:59.222Z,16.60725
2022-09-15T09:35:00.225Z,16.54264
2022-09-15T09:40:01.294Z,16.4735
2022-09-15T09:45:02.418Z,16.45799
2022-09-15T09:50:03.500Z,16.51033
2022-09-15T09:55:04.591Z,16.63212
2022-09-15T10:00:05.512Z,16.77039
2022-09-15T10:05:06.614Z,17.02561
2022-09-15T10:10:07.786Z,17.36516
2022-09-15T10:15:08.763Z,17.40909
2022-09-15T10:20:10.401Z,17.57289
2022-09-15T10:25:11.405Z,17.50795
2022-09-15T10:30:12.446Z,18.10272
2022-09-15T10:35:13.680Z,18.08333
2022-09-15T10:40:14.615Z,17.94603
2022-09-15T10:45:15.608Z,18.09852
2022-09-15T10:50:16.613Z,18.56955
2022-09-15T10:55:24.812Z,18.74562
2022-09-15T11:00:38.148Z,18.91911
2022-09-15T11:05:39.125Z,19.37206
2022-09-15T11:10:40.040Z,19.5869
2022-09-15T11:15:42.184Z,19.55589
2022-09-15T11:20:43.257Z,19.34234
2022-09-15T11:25:44.169Z,18.93817
2022-09-15T11:30:47.803Z,18.80668
2022-09-15T11:35:49.200Z,18.86742
2022-09-15T11:40:50.256Z,18.81088
2022-09-15T11:45:51.236Z,19.15689
2022-09-15T11:50:52.158Z,19.42795
2022-09-15T11:55:53.165Z,19.73228
2022-09-15T12:00:54.062Z,19.37464
2022-09-15T12:05:54.986Z,19.19178
2022-09-15T12:10:55.937Z,18.87194
2022-09-15T12:15:57.487Z,18.57343
2022-09-15T12:20:58.564Z,18.49686
2022-09-15T12:25:59.463Z,18.64289
2022-09-15T12:31:00.502Z,18.47748
2022-09-15T12:36:01.614Z,18.29139
2022-09-15T12:41:02.533Z,18.35826
2022-09-15T12:46:03.711Z,18.24745
2022-09-15T12:51:04.598Z,18.16765
2022-09-15T12:56:05.489Z,18.24616
2022-09-15T13:01:18.088Z,18.55986
2022-09-15T13:06:19.818Z,18.89876
2022-09-15T13:11:20.762Z,18.6374
2022-09-15T13:16:21.728Z,18.71041
2022-09-15T13:21:22.734Z,18.97177
2022-09-15T13:26:23.949Z,19.03186
2022-09-15T13:31:24.929Z,20.09704
2022-09-15T13:36:26.630Z,20.59102
2022-09-15T13:41:27.721Z,20.45726
2022-09-15T13:46:28.942Z,19.85473
2022-09-15T13:51:29.979Z,19.74908
2022-09-15T14:01:45.351Z,20.4256
2022-09-15T14:06:46.355Z,20.32706
2022-09-15T14:11:47.298Z,20.26891
2022-09-15T14:16:48.523Z,20.09833
2022-09-15T14:21:49.478Z,20.39717
2022-09-15T14:26:50.368Z,20.94576
2022-09-15T14:31:51.479Z,20.58779
2022-09-15T14:36:52.509Z,20.15293
2022-09-15T14:41:53.473Z,20.19816
2022-09-15T14:46:54.418Z,20.24145
2022-09-15T14:51:55.335Z,19.68835
2022-09-15T14:56:58.299Z,19.41664
2022-09-15T15:01:59.309Z,19.29517
2022-09-15T15:07:00.265Z,19.20277
2022-09-15T15:12:01.237Z,19.15237
2022-09-15T15:17:02.696Z,19.02605
2022-09-15T15:22:03.671Z,19.02088
2022-09-15T15:27:04.686Z,18.92105
2022-09-15T15:32:05.650Z,18.8545
2022-09-15T15:37:06.612Z,18.76436
2022-09-15T15:42:07.543Z,18.51883
2022-09-15T15:47:08.550Z,18.53918
2022-09-15T15:52:09.620Z,18.40834
2022-09-15T15:57:10.696Z,18.07203
2022-09-15T16:02:11.839Z,17.73474
2022-09-15T16:07:12.869Z,17.65721
2022-09-15T16:12:13.789Z,17.63007
2022-09-15T16:17:15.091Z,17.71665
2022-09-15T16:22:16.017Z,17.74411
2022-09-15T16:27:16.930Z,17.60939
2022-09-15T16:32:17.867Z,17.30248
2022-09-15T16:37:18.869Z,17.11413
2022-09-15T16:42:19.782Z,16.9148
2022-09-15T16:47:21.083Z,16.84115
2022-09-15T16:52:22.352Z,16.69286
2022-09-15T16:57:23.766Z,16.63988
2022-09-15T17:02:24.984Z,16.60111
2022-09-15T17:07:25.989Z,16.49999
2022-09-15T17:12:26.961Z,16.39273
2022-09-15T17:17:28.436Z,16.25866
2022-09-15T17:22:29.583Z,16.19696
2022-09-15T17:27:30.461Z,16.1821
2022-09-15T17:32:34.776Z,16.10327
2022-09-15T17:37:35.986Z,16.00442
2022-09-15T17:42:36.982Z,15.84612
2022-09-15T17:47:37.869Z,15.80509
2022-09-15T17:52:38.888Z,15.79281
2022-09-15T17:57:40.707Z,15.70462
2022-09-15T18:02:41.677Z,15.53695
2022-09-15T18:07:47.724Z,15.41516
2022-09-15T18:12:50.108Z,15.31791
2022-09-15T18:17:53.390Z,15.46006
2022-09-15T18:22:54.319Z,15.38963
2022-09-15T18:27:55.247Z,15.32664
2022-09-15T18:32:56.145Z,15.19612
2022-09-15T18:37:57.115Z,15.05882
2022-09-15T18:42:58.049Z,15.00681
2022-09-15T18:47:58.968Z,14.88954
2022-09-15T18:53:00.017Z,14.7348
2022-09-15T18:58:01.313Z,14.71994
2022-09-15T19:03:02.479Z,14.8511
2022-09-15T19:08:03.373Z,14.83107
2022-09-15T19:13:04.358Z,14.84302
2022-09-15T19:18:05.298Z,14.8498
2022-09-15T19:23:06.333Z,14.55259
2022-09-15T19:28:07.278Z,14.5093
2022-09-15T19:33:08.220Z,14.51997
2022-09-15T19:38:09.118Z,14.52675
2022-09-15T19:43:10.017Z,14.48508
2022-09-15T19:48:11.016Z,14.44566
2022-09-15T19:53:12.001Z,14.34261
2022-09-15T19:58:12.908Z,14.26701
2022-09-15T20:03:13.800Z,14.30933
2022-09-15T20:08:15.265Z,14.34358
2022-09-15T20:13:16.326Z,14.41303
2022-09-15T20:18:17.296Z,14.34035
2022-09-15T20:23:18.312Z,14.23858
2022-09-15T20:28:19.243Z,14.24343
2022-09-15T20:33:20.169Z,14.20046
2022-09-15T20:38:21.234Z,14.12099
2022-09-15T20:43:22.169Z,14.07157
2022-09-15T20:48:24.061Z,14.0202
2022-09-15T20:53:26.457Z,13.97497
2022-09-15T20:58:27.530Z,14.1197
2022-09-15T21:03:28.474Z,13.93847
2022-09-15T21:08:29.443Z,13.81958
2022-09-15T21:13:30.380Z,13.79083
2022-09-15T21:18:31.284Z,13.71524
2022-09-15T21:23:32.230Z,13.74431
2022-09-15T21:28:33.146Z,13.77274
2022-09-15T21:33:34.031Z,13.77177
2022-09-15T21:38:34.940Z,13.83089
2022-09-15T21:43:36.050Z,13.7091
2022-09-15T21:48:37.102Z,13.58828
2022-09-15T21:53:38.123Z,13.55953
2022-09-15T21:58:42.647Z,13.48458
2022-09-15T22:03:44.642Z,13.52528
2022-09-15T22:08:45.866Z,13.50009
2022-09-15T22:13:47.030Z,13.33791
2022-09-15T22:18:48.241Z,13.33048
2022-09-15T22:23:49.196Z,13.22711
2022-09-15T22:28:50.118Z,13.12793
2022-09-15T22:33:51.057Z,13.11695
2022-09-15T22:38:52.020Z,13.15184
2022-09-15T22:43:53.058Z,13.05298
2022-09-15T22:48:54.001Z,12.90987
2022-09-15T22:53:55.027Z,12.88274
2022-09-15T22:58:56.127Z,12.90341
2022-09-15T23:03:57.279Z,12.87434
2022-09-15T23:08:58.267Z,12.86432
2022-09-15T23:13:59.185Z,12.80682
2022-09-15T23:19:00.111Z,12.81167
2022-09-15T23:24:01.145Z,12.80197
2022-09-15T23:29:02.081Z,12.74479
2022-09-15T23:34:03.070Z,12.79293
2022-09-15T23:39:04.057Z,12.86949
2022-09-15T23:44:05.441Z,12.7351
2022-09-15T23:49:06.344Z,12.61202
2022-09-15T23:54:07.281Z,12.54321
2022-09-15T23:59:08.330Z,12.60039
